This is the latest recevied weather packets stored in our database for station/object OE3MHU-12. If no packets are shown the sender has not sent any weather packets the latest 10 day(s).
| Time | Temp. | Humidity | Pressure | Rain* | Wind** | Luminosity | Snow |
|---|---|---|---|---|---|---|---|
| 1777544758 | 11.11° C | 35% | 1031.1 hPa | 0 mm | - | - | - |
| 1777542958 | 10° C | 42% | 1031.3 hPa | 0 mm | - | - | - |
| 1777541158 | 10° C | 35% | 1031.3 hPa | 0 mm | - | - | - |
| 1777539358 | 9.44° C | 38% | 1031.7 hPa | 0 mm | - | - | - |
| 1777537558 | 8.33° C | 40% | 1031.9 hPa | 0 mm | - | - | - |
| 1777533958 | 7.78° C | 43% | 1031.9 hPa | 0 mm | - | - | - |
| 1777532158 | 5.56° C | 50% | 1032 hPa | 0 mm | - | - | - |
| 1777530358 | 5° C | 55% | 1031.9 hPa | 0 mm | - | - | - |
| 1777526759 | -2.22° C | 74% | 1031.6 hPa | 0 mm | - | - | - |
| 1777524959 | -3.33° C | 75% | 1031.7 hPa | 0 mm | - | - | - |
| 1777521359 | -3.89° C | 74% | 1031.2 hPa | 0 mm | - | - | - |
| 1777519559 | -3.89° C | 74% | 1031 hPa | 0 mm | - | - | - |
| 1777517759 | -3.33° C | 73% | 1030.9 hPa | 0 mm | - | - | - |
| 1777515959 | -2.78° C | 71% | 1030.6 hPa | 0 mm | - | - | - |
| 1777514159 | -2.78° C | 71% | 1030.5 hPa | 0 mm | - | - | - |
| 1777512359 | -2.78° C | 70% | 1030.4 hPa | 0 mm | - | - | - |
| 1777510559 | -2.22° C | 68% | 1030.3 hPa | 0 mm | - | - | - |
| 1777508759 | -1.67° C | 67% | 1030.1 hPa | 0 mm | - | - | - |
| 1777506960 | -1.11° C | 65% | 1030.1 hPa | 0 mm | - | - | - |
| 1777505262 | -0.56° C | 62% | 1030.2 hPa | 0 mm | - | - | - |
| 1777505160 | -0.56° C | 62% | 1030.2 hPa | 0 mm | - | - | - |
| 1777503360 | 0.56° C | 59% | 1030.1 hPa | 0 mm | - | - | - |
| 1777501560 | 1.11° C | 56% | 1029.7 hPa | 0 mm | - | - | - |
| 1777499760 | 2.22° C | 53% | 1029.6 hPa | 0 mm | - | - | - |
| 1777497960 | 3.33° C | 46% | 1029.2 hPa | 0 mm | - | - | - |
* Rain latest hour (hover to see other rain measurements)
** Current wind speed in m/s (hover to see current wind gust speed)